createdAt,value
2023-04-02T00:01:37.937Z,95.50
2023-04-02T00:04:23.387Z,95.57
2023-04-02T00:07:01.394Z,95.59
2023-04-02T00:09:37.973Z,95.56
2023-04-02T00:12:20.854Z,95.49
2023-04-02T00:14:57.965Z,95.52
2023-04-02T00:17:31.042Z,95.59
2023-04-02T00:20:08.577Z,95.70
2023-04-02T00:22:45.879Z,95.80
2023-04-02T00:25:19.479Z,95.86
2023-04-02T00:27:52.929Z,96.07
2023-04-02T00:30:25.688Z,96.25
2023-04-02T00:33:00.774Z,96.42
2023-04-02T00:35:33.335Z,96.53
2023-04-02T00:38:06.898Z,96.55
2023-04-02T00:40:41.398Z,96.62
2023-04-02T00:43:17.002Z,96.71
2023-04-02T00:45:52.964Z,96.77
2023-04-02T00:49:10.893Z,96.88
2023-04-02T00:52:05.051Z,97.03
2023-04-02T00:54:47.033Z,97.15
2023-04-02T00:57:26.308Z,97.18
2023-04-02T01:00:23.273Z,97.16
2023-04-02T01:03:24.070Z,97.18
2023-04-02T01:06:19.129Z,97.16
2023-04-02T01:09:12.754Z,97.21
2023-04-02T01:11:54.102Z,97.24
2023-04-02T01:14:51.395Z,97.28
2023-04-02T01:17:52.859Z,97.28
2023-04-02T01:20:51.490Z,97.45
2023-04-02T01:23:37.568Z,97.59
2023-04-02T01:26:27.525Z,97.72
2023-04-02T01:29:27.932Z,97.65
2023-04-02T01:32:05.242Z,97.59
2023-04-02T01:34:39.252Z,97.53
2023-04-02T01:37:49.528Z,97.55
2023-04-02T01:40:30.168Z,97.48
2023-04-02T01:43:32.209Z,97.54
2023-04-02T01:46:27.556Z,97.48
2023-04-02T01:49:08.239Z,97.33
2023-04-02T01:51:48.802Z,97.13
2023-04-02T01:54:24.238Z,97.01
2023-04-02T01:56:57.582Z,96.84
2023-04-02T01:59:33.561Z,96.60
2023-04-02T02:02:12.935Z,96.12
2023-04-02T02:04:46.553Z,95.97
2023-04-02T02:07:21.837Z,95.72
2023-04-02T02:09:56.854Z,95.64
2023-04-02T02:12:30.025Z,95.45
2023-04-02T02:15:02.900Z,95.12
2023-04-02T02:17:36.480Z,95.00
2023-04-02T02:20:12.578Z,94.75
2023-04-02T02:22:49.875Z,94.57
2023-04-02T02:25:29.423Z,94.45
2023-04-02T02:28:18.346Z,94.46
2023-04-02T02:31:04.467Z,94.45
2023-04-02T02:33:50.629Z,94.39
2023-04-02T02:36:33.071Z,94.57
2023-04-02T02:39:34.966Z,94.64
2023-04-02T02:42:21.409Z,94.67
2023-04-02T02:44:55.081Z,94.55
2023-04-02T02:47:35.715Z,94.57
2023-04-02T02:50:18.321Z,94.53
2023-04-02T02:52:57.223Z,94.43
2023-04-02T02:55:37.744Z,94.26
2023-04-02T02:58:28.781Z,94.49
2023-04-02T03:01:09.089Z,94.54
2023-04-02T03:03:45.154Z,94.58
2023-04-02T03:06:21.380Z,94.57
2023-04-02T03:09:06.325Z,94.60
2023-04-02T03:11:45.835Z,94.54
2023-04-02T03:14:46.790Z,94.48
2023-04-02T03:17:39.797Z,94.26
2023-04-02T03:20:39.106Z,94.20
2023-04-02T03:23:31.705Z,94.08
2023-04-02T03:26:09.270Z,93.85
2023-04-02T03:29:02.773Z,93.62
2023-04-02T03:31:49.760Z,93.45
2023-04-02T03:34:33.027Z,93.31
2023-04-02T03:37:14.437Z,93.07
2023-04-02T03:40:08.339Z,92.73
2023-04-02T03:42:56.891Z,92.46
2023-04-02T03:45:37.552Z,92.21
2023-04-02T03:48:27.552Z,92.16
2023-04-02T03:51:20.247Z,92.06
2023-04-02T03:53:53.954Z,92.02
2023-04-02T03:56:39.214Z,92.10
2023-04-02T03:59:30.724Z,92.09
2023-04-02T04:02:24.007Z,92.15
2023-04-02T04:04:58.477Z,92.07
2023-04-02T04:07:41.612Z,91.99
2023-04-02T04:10:21.475Z,92.08
2023-04-02T04:12:57.221Z,92.37
2023-04-02T04:16:02.309Z,92.63
2023-04-02T04:18:43.281Z,92.68
2023-04-02T04:21:33.588Z,92.70
2023-04-02T04:24:23.437Z,92.42
2023-04-02T04:27:09.698Z,92.54
2023-04-02T04:29:59.022Z,92.50
2023-04-02T04:32:42.980Z,92.47
2023-04-02T04:35:36.043Z,92.32
2023-04-02T04:38:22.147Z,91.95
2023-04-02T04:41:01.810Z,91.65
2023-04-02T04:43:53.130Z,91.42
2023-04-02T04:46:33.771Z,91.20
2023-04-02T04:49:20.860Z,91.10
2023-04-02T04:52:01.020Z,91.14
2023-04-02T04:54:39.095Z,91.35
2023-04-02T04:57:32.238Z,91.09
2023-04-02T05:00:26.600Z,91.02
2023-04-02T05:03:09.502Z,91.17
2023-04-02T05:05:43.730Z,90.88
2023-04-02T05:08:31.081Z,90.80
2023-04-02T05:11:12.141Z,90.50
2023-04-02T05:13:56.731Z,89.91
2023-04-02T05:16:35.154Z,89.79
2023-04-02T05:19:22.173Z,89.34
2023-04-02T05:22:06.531Z,89.00
2023-04-02T05:24:50.747Z,88.94
2023-04-02T05:27:32.035Z,88.51
2023-04-02T05:30:28.055Z,87.98
2023-04-02T05:33:10.327Z,87.60
2023-04-02T05:35:47.786Z,87.34
2023-04-02T05:38:24.594Z,86.91
2023-04-02T05:41:08.604Z,86.45
2023-04-02T05:43:46.689Z,86.76
2023-04-02T05:46:27.525Z,86.45
2023-04-02T05:49:01.809Z,86.62
2023-04-02T05:51:43.395Z,86.76
2023-04-02T05:54:35.405Z,86.50
2023-04-02T05:57:13.076Z,86.16
2023-04-02T05:59:58.121Z,85.47
2023-04-02T06:02:45.348Z,85.04
2023-04-02T06:05:23.181Z,84.79
2023-04-02T06:08:09.748Z,84.46
2023-04-02T06:10:56.234Z,84.14
2023-04-02T06:13:31.424Z,83.94
2023-04-02T06:16:06.110Z,84.36
2023-04-02T06:18:39.547Z,84.31
2023-04-02T06:21:16.818Z,84.60
2023-04-02T06:23:58.876Z,84.73
2023-04-02T06:26:40.394Z,84.94
2023-04-02T06:29:36.224Z,85.21
2023-04-02T06:32:12.574Z,84.81
2023-04-02T06:34:47.252Z,84.69
2023-04-02T06:37:43.029Z,84.59
2023-04-02T06:40:48.639Z,84.48
2023-04-02T06:43:37.069Z,84.45
2023-04-02T06:46:43.102Z,84.34
2023-04-02T06:49:34.610Z,84.72
2023-04-02T06:52:28.584Z,84.02
2023-04-02T06:55:02.168Z,84.11
2023-04-02T06:57:36.165Z,83.29
2023-04-02T07:00:15.027Z,82.62
2023-04-02T07:02:48.457Z,82.03
2023-04-02T07:05:21.543Z,80.93
2023-04-02T07:07:55.956Z,80.51
2023-04-02T07:10:29.063Z,80.05
2023-04-02T07:13:02.780Z,80.19
2023-04-02T07:15:36.571Z,79.42
2023-04-02T07:18:13.092Z,78.41
2023-04-02T07:20:46.602Z,77.78
2023-04-02T07:23:21.578Z,77.19
2023-04-02T07:25:57.808Z,77.02
2023-04-02T07:28:32.021Z,76.96
2023-04-02T07:31:05.357Z,75.97
2023-04-02T07:33:39.358Z,75.96
2023-04-02T07:36:19.530Z,75.94
2023-04-02T07:38:53.564Z,75.42
2023-04-02T07:41:27.922Z,74.76
2023-04-02T07:44:00.494Z,74.73
2023-04-02T07:46:33.727Z,74.25
2023-04-02T07:49:06.723Z,74.90
2023-04-02T07:51:39.823Z,74.95
2023-04-02T07:54:13.335Z,74.93
2023-04-02T07:56:46.782Z,75.42
2023-04-02T07:59:19.563Z,75.13
2023-04-02T08:01:54.809Z,75.58
2023-04-02T08:04:28.118Z,73.26
2023-04-02T08:07:02.244Z,69.88
2023-04-02T08:09:35.876Z,66.91
2023-04-02T08:12:10.359Z,65.17
2023-04-02T08:14:44.002Z,63.43
2023-04-02T08:17:17.137Z,61.99
2023-04-02T08:19:55.094Z,61.51
2023-04-02T08:22:28.021Z,61.67
2023-04-02T08:25:00.979Z,61.21
2023-04-02T08:27:35.312Z,60.92
2023-04-02T08:30:09.839Z,60.78
2023-04-02T08:32:43.489Z,59.27
2023-04-02T08:35:18.560Z,59.96
2023-04-02T08:37:53.134Z,60.08
2023-04-02T08:40:40.277Z,59.26
2023-04-02T08:43:42.354Z,59.43
2023-04-02T08:46:43.294Z,59.44
2023-04-02T08:49:29.754Z,58.97
2023-04-02T08:52:02.722Z,57.34
2023-04-02T08:54:42.887Z,55.95
2023-04-02T08:57:39.835Z,55.25
2023-04-02T09:00:34.176Z,55.63
2023-04-02T09:03:32.210Z,55.89
2023-04-02T09:06:06.611Z,55.17
2023-04-02T09:08:39.992Z,54.38
2023-04-02T09:11:38.760Z,54.04
2023-04-02T09:14:21.422Z,53.62
2023-04-02T09:17:01.882Z,53.28
2023-04-02T09:19:45.279Z,53.00
2023-04-02T09:22:30.320Z,52.32
2023-04-02T09:25:06.735Z,51.33
2023-04-02T09:27:40.878Z,50.76
2023-04-02T09:30:46.225Z,51.19
2023-04-02T09:33:19.516Z,50.95
2023-04-02T09:35:56.846Z,50.87
2023-04-02T09:38:32.658Z,51.63
2023-04-02T09:41:08.395Z,49.82
2023-04-02T09:43:41.801Z,49.45
2023-04-02T09:46:25.093Z,48.27
2023-04-02T09:49:02.734Z,48.04
2023-04-02T09:51:36.816Z,46.45
2023-04-02T09:54:19.146Z,47.47
2023-04-02T09:57:04.931Z,46.45
2023-04-02T09:59:38.034Z,45.79
2023-04-02T10:02:27.764Z,46.02
2023-04-02T10:05:04.386Z,43.97
2023-04-02T10:07:51.141Z,43.71
2023-04-02T10:10:33.976Z,44.07
2023-04-02T10:13:23.852Z,43.74
2023-04-02T10:16:14.137Z,44.55
2023-04-02T10:18:58.048Z,44.91
2023-04-02T10:21:39.324Z,44.97
2023-04-02T10:24:18.259Z,44.79
2023-04-02T10:27:21.629Z,45.17
2023-04-02T10:30:19.468Z,44.82
2023-04-02T10:33:02.297Z,44.82
2023-04-02T10:35:59.518Z,44.33
2023-04-02T10:38:46.273Z,42.61
2023-04-02T10:41:47.476Z,42.94
2023-04-02T10:44:31.415Z,42.36
2023-04-02T10:47:23.735Z,41.41
2023-04-02T10:50:07.030Z,42.60
2023-04-02T10:52:51.242Z,42.07
2023-04-02T10:55:29.558Z,42.43
2023-04-02T10:58:07.442Z,42.62
2023-04-02T11:00:42.990Z,43.09
2023-04-02T11:03:26.984Z,43.17
2023-04-02T11:06:04.149Z,43.96
2023-04-02T11:08:50.289Z,41.66
2023-04-02T11:11:30.342Z,41.16
2023-04-02T11:14:28.433Z,41.85
2023-04-02T11:17:05.983Z,41.17
2023-04-02T11:19:39.299Z,42.13
2023-04-02T11:22:22.835Z,41.06
2023-04-02T11:24:57.302Z,40.90
2023-04-02T11:27:36.731Z,41.57
2023-04-02T11:30:26.307Z,40.98
2023-04-02T11:33:04.732Z,41.58
2023-04-02T11:35:41.131Z,42.58
2023-04-02T11:38:26.522Z,41.96
2023-04-02T11:41:00.580Z,41.71
2023-04-02T11:43:38.602Z,40.85
2023-04-02T11:46:33.004Z,41.16
2023-04-02T11:49:36.787Z,41.19
2023-04-02T11:52:25.959Z,41.60
2023-04-02T11:55:06.850Z,42.26
2023-04-02T11:57:59.408Z,42.03
2023-04-02T12:00:55.407Z,42.13
2023-04-02T12:03:38.911Z,42.47
2023-04-02T12:06:48.278Z,42.45
2023-04-02T12:09:29.931Z,42.15
2023-04-02T12:12:10.558Z,42.81
2023-04-02T12:15:00.110Z,42.11
2023-04-02T13:50:44.919Z,43.39
2023-04-02T13:53:25.175Z,42.85
2023-04-02T13:55:58.638Z,42.66
2023-04-02T13:58:32.571Z,43.02
2023-04-02T14:01:06.387Z,42.90
2023-04-02T14:03:41.009Z,42.92
2023-04-02T14:06:45.980Z,42.60
2023-04-02T14:09:31.723Z,42.82
2023-04-02T14:12:27.063Z,42.05
2023-04-02T14:15:21.412Z,41.63
2023-04-02T14:18:32.123Z,41.72
2023-04-02T14:21:27.957Z,41.52
2023-04-02T14:24:21.059Z,41.68
2023-04-02T14:27:22.308Z,42.27
2023-04-02T14:30:25.215Z,42.52
2023-04-02T14:33:24.287Z,42.71
2023-04-02T14:36:20.201Z,42.59
2023-04-02T14:39:00.835Z,42.73
2023-04-02T14:42:07.478Z,43.44
2023-04-02T14:44:49.060Z,43.96
2023-04-02T14:47:32.545Z,44.20
2023-04-02T14:50:21.249Z,44.76
2023-04-02T14:53:03.501Z,45.08
2023-04-02T14:55:44.043Z,45.12
2023-04-02T14:58:22.207Z,45.14
2023-04-02T15:01:12.276Z,45.12
2023-04-02T15:03:57.547Z,45.42
2023-04-02T15:06:41.217Z,45.58
2023-04-02T15:09:24.163Z,45.76
2023-04-02T15:12:11.375Z,45.97
2023-04-02T15:14:49.125Z,46.28
2023-04-02T15:17:23.101Z,46.88
2023-04-02T15:20:01.113Z,47.31
2023-04-02T15:22:39.517Z,47.63
2023-04-02T15:25:35.483Z,47.94
2023-04-02T15:28:57.245Z,48.37
2023-04-02T15:31:30.854Z,48.72
2023-04-02T15:34:14.318Z,49.13
2023-04-02T15:37:17.445Z,49.52
2023-04-02T15:40:29.124Z,50.19
2023-04-02T15:43:32.151Z,51.03
2023-04-02T15:46:25.419Z,51.09
2023-04-02T15:49:12.253Z,50.83
2023-04-02T15:51:53.130Z,51.80
2023-04-02T15:54:58.962Z,51.82
2023-04-02T15:58:06.711Z,53.09
2023-04-02T16:00:59.643Z,53.43
2023-04-02T16:04:12.737Z,53.74
2023-04-02T16:07:10.368Z,55.27
2023-04-02T16:10:10.183Z,55.11
2023-04-02T16:12:44.275Z,56.16
2023-04-02T16:15:25.052Z,56.26
2023-04-02T16:18:05.418Z,56.67
2023-04-02T16:20:42.963Z,57.06
2023-04-02T16:23:24.960Z,57.48
2023-04-02T16:26:05.314Z,57.35
2023-04-02T16:29:01.314Z,57.47
2023-04-02T16:31:52.133Z,57.99
2023-04-02T16:34:47.142Z,57.28
2023-04-02T16:37:34.993Z,57.57
2023-04-02T16:40:47.720Z,57.72
2023-04-02T16:43:35.609Z,55.91
2023-04-02T16:46:38.207Z,55.34
2023-04-02T16:49:04.581Z,55.39
2023-04-02T16:51:48.147Z,55.03
2023-04-02T16:54:42.010Z,55.05
2023-04-02T16:57:21.525Z,55.21
2023-04-02T17:00:17.746Z,55.24
2023-04-02T17:03:08.830Z,55.24
2023-04-02T17:05:52.749Z,55.19
2023-04-02T17:08:50.888Z,55.55
2023-04-02T17:11:49.149Z,55.70
2023-04-02T17:14:41.581Z,55.58
2023-04-02T17:17:16.369Z,55.49
2023-04-02T17:19:52.855Z,54.63
2023-04-02T17:22:26.076Z,55.05
2023-04-02T17:25:04.870Z,55.30
2023-04-02T17:27:44.528Z,55.69
2023-04-02T17:30:42.528Z,56.19
2023-04-02T17:33:22.386Z,56.42
2023-04-02T17:36:22.558Z,56.52
2023-04-02T17:39:30.349Z,56.77
2023-04-02T17:42:38.172Z,57.45
2023-04-02T17:45:39.297Z,57.79
2023-04-02T17:48:38.210Z,58.43
2023-04-02T17:51:53.653Z,58.90
2023-04-02T17:54:49.732Z,59.63
2023-04-02T17:57:42.415Z,60.20
2023-04-02T18:00:46.178Z,60.51
2023-04-02T18:03:53.116Z,60.95
2023-04-02T18:07:08.779Z,61.35
2023-04-02T18:10:01.874Z,61.87
2023-04-02T18:13:08.767Z,62.39
2023-04-02T18:15:50.612Z,62.64
2023-04-02T18:19:08.790Z,62.82
2023-04-02T18:22:16.361Z,62.99
2023-04-02T18:25:15.447Z,63.48
2023-04-02T18:28:34.638Z,63.90
2023-04-02T18:31:27.285Z,63.98
2023-04-02T18:34:14.031Z,64.34
2023-04-02T18:37:17.210Z,64.54
2023-04-02T18:40:10.149Z,64.78
2023-04-02T18:43:06.310Z,65.02
2023-04-02T18:46:20.292Z,65.24
2023-04-02T18:49:00.742Z,65.41
2023-04-02T18:51:37.287Z,65.53
2023-04-02T18:54:17.734Z,65.62
2023-04-02T18:56:52.355Z,65.82
2023-04-02T18:59:48.237Z,65.84
2023-04-02T19:02:46.331Z,65.99
2023-04-02T19:05:53.449Z,66.11
2023-04-02T19:09:01.375Z,66.05
2023-04-02T19:11:34.465Z,66.05
2023-04-02T19:14:14.492Z,65.98
2023-04-02T19:17:04.202Z,65.84
2023-04-02T19:19:44.432Z,65.85
2023-04-02T19:22:35.352Z,65.86
2023-04-02T19:25:47.656Z,65.99
2023-04-02T19:28:37.695Z,66.22
2023-04-02T19:31:39.360Z,66.49
2023-04-02T19:34:23.241Z,66.58
2023-04-02T19:37:15.280Z,66.97
2023-04-02T19:40:14.368Z,67.08
2023-04-02T19:42:55.658Z,67.20
2023-04-02T19:45:44.132Z,67.50
2023-04-02T19:48:21.890Z,67.53
2023-04-02T19:50:55.640Z,67.78
2023-04-02T19:53:29.122Z,68.01
2023-04-02T19:56:02.477Z,68.06
2023-04-02T19:58:36.947Z,68.33
2023-04-02T20:01:10.474Z,68.44
2023-04-02T20:03:43.851Z,68.57
2023-04-02T20:06:17.426Z,68.67
2023-04-02T20:08:50.927Z,68.70
2023-04-02T20:11:23.807Z,68.59
2023-04-02T20:13:57.457Z,68.52
2023-04-02T20:16:30.451Z,68.43
2023-04-02T20:19:03.600Z,68.51
2023-04-02T20:21:38.864Z,68.47
2023-04-02T20:24:13.940Z,68.24
2023-04-02T20:26:46.795Z,68.08
2023-04-02T20:29:20.495Z,67.91
2023-04-02T20:31:53.762Z,67.60
2023-04-02T20:34:26.878Z,67.69
2023-04-02T20:37:00.422Z,67.75
2023-04-02T20:39:33.491Z,67.72
2023-04-02T20:42:06.471Z,67.92
2023-04-02T20:44:41.705Z,68.01
2023-04-02T20:47:16.182Z,68.08
2023-04-02T20:49:50.697Z,68.19
2023-04-02T20:52:24.643Z,68.11
2023-04-02T20:54:57.764Z,68.12
2023-04-02T20:57:33.808Z,67.82
2023-04-02T21:00:11.225Z,67.57
2023-04-02T21:02:44.919Z,67.23
2023-04-02T21:05:17.747Z,67.01
2023-04-02T21:07:50.696Z,66.71
2023-04-02T21:10:23.524Z,66.30
2023-04-02T21:12:57.230Z,66.24
2023-04-02T21:15:30.292Z,65.77
2023-04-02T21:18:04.025Z,65.45
2023-04-02T21:20:38.185Z,65.53
2023-04-02T21:23:11.389Z,65.13
2023-04-02T21:25:44.350Z,64.77
2023-04-02T21:28:17.165Z,64.88
2023-04-02T21:30:50.181Z,64.77
2023-04-02T21:33:23.662Z,64.79
2023-04-02T21:35:57.219Z,64.65
2023-04-02T21:38:30.165Z,64.64
2023-04-02T21:41:15.895Z,64.59
2023-04-02T21:43:49.285Z,64.50
2023-04-02T21:46:25.948Z,64.56
2023-04-02T21:49:01.332Z,64.57
2023-04-02T21:51:34.532Z,64.55
2023-04-02T21:54:08.758Z,64.68
2023-04-02T21:56:44.946Z,64.92
2023-04-02T21:59:19.390Z,64.88
2023-04-02T22:01:54.595Z,64.89
2023-04-02T22:04:29.838Z,64.92
2023-04-02T22:07:02.906Z,64.87
2023-04-02T22:09:35.832Z,64.84
2023-04-02T22:12:09.925Z,65.02
2023-04-02T22:14:43.873Z,65.11
2023-04-02T22:17:17.219Z,65.25
2023-04-02T22:19:51.040Z,65.24
2023-04-02T22:22:24.142Z,65.37
2023-04-02T22:24:56.950Z,65.63
2023-04-02T22:27:30.270Z,65.75
2023-04-02T22:30:03.705Z,65.87
2023-04-02T22:32:39.738Z,65.97
2023-04-02T22:35:12.844Z,66.31
2023-04-02T22:37:46.099Z,66.42
2023-04-02T22:40:19.441Z,66.61
2023-04-02T22:42:52.453Z,66.75
2023-04-02T22:45:25.550Z,66.94
2023-04-02T22:47:58.384Z,67.22
2023-04-02T22:50:31.909Z,67.57
2023-04-02T22:53:05.067Z,67.79
2023-04-02T22:55:37.959Z,68.03
2023-04-02T22:58:10.864Z,68.26
2023-04-02T23:00:44.636Z,68.44
2023-04-02T23:03:18.689Z,68.68
2023-04-02T23:06:01.620Z,68.70
2023-04-02T23:08:35.424Z,69.06
2023-04-02T23:11:22.482Z,69.19
2023-04-02T23:13:58.787Z,69.35
2023-04-02T23:16:31.769Z,69.82
2023-04-02T23:19:05.238Z,69.90
2023-04-02T23:21:38.788Z,70.03
2023-04-02T23:24:14.241Z,70.04
2023-04-02T23:26:47.993Z,70.36
2023-04-02T23:29:20.749Z,70.40
2023-04-02T23:31:54.589Z,70.52
2023-04-02T23:34:27.964Z,70.51
2023-04-02T23:37:00.902Z,70.51
2023-04-02T23:39:34.142Z,70.71
2023-04-02T23:42:07.822Z,70.83
2023-04-02T23:44:41.240Z,70.86
2023-04-02T23:47:14.138Z,71.05
2023-04-02T23:49:48.154Z,71.18
2023-04-02T23:52:21.141Z,71.40
2023-04-02T23:54:54.320Z,71.41
2023-04-02T23:57:28.822Z,71.39
